createdAt,value
2022-07-29T00:02:15.716Z,9.32
2022-07-29T00:04:46.808Z,7.18
2022-07-29T00:07:24.438Z,6.82
2022-07-29T00:09:55.511Z,7.50
2022-07-29T00:12:26.764Z,7.82
2022-07-29T00:14:56.126Z,9.45
2022-07-29T00:17:26.862Z,5.07
2022-07-29T00:20:01.157Z,7.25
2022-07-29T00:22:32.435Z,6.55
2022-07-29T00:25:01.551Z,5.03
2022-07-29T00:27:28.470Z,6.95
2022-07-29T00:29:56.790Z,9.13
2022-07-29T00:32:23.991Z,5.50
2022-07-29T00:35:19.503Z,7.55
2022-07-29T00:37:52.499Z,8.32
2022-07-29T00:40:23.578Z,7.40
2022-07-29T00:42:54.170Z,7.40
2022-07-29T00:45:21.412Z,9.32
2022-07-29T00:47:55.972Z,6.05
2022-07-29T00:50:25.001Z,5.85
2022-07-29T00:52:55.907Z,6.05
2022-07-29T00:55:28.361Z,12.30
2022-07-29T00:57:58.229Z,7.20
2022-07-29T01:00:27.656Z,5.75
2022-07-29T01:02:56.088Z,10.02
2022-07-29T01:05:50.429Z,8.73
2022-07-29T01:08:17.299Z,7.85
2022-07-29T01:10:45.514Z,6.90
2022-07-29T01:13:20.136Z,7.68
2022-07-29T01:16:04.319Z,8.05
2022-07-29T01:18:37.343Z,5.25
2022-07-29T01:21:04.991Z,8.30
2022-07-29T01:24:04.785Z,6.55
2022-07-29T01:26:48.141Z,6.28
2022-07-29T01:29:21.946Z,6.65
2022-07-29T01:32:00.971Z,6.50
2022-07-29T01:34:48.839Z,8.45
2022-07-29T01:40:01.653Z,7.38
2022-07-29T01:42:43.873Z,7.40
2022-07-29T01:45:18.159Z,7.53
2022-07-29T01:48:02.596Z,7.10
2022-07-29T01:50:38.524Z,4.85
2022-07-29T01:53:10.517Z,7.05
2022-07-29T01:55:41.681Z,7.40
2022-07-29T01:58:10.455Z,6.55
2022-07-29T02:00:40.709Z,7.93
2022-07-29T02:03:13.963Z,8.52
2022-07-29T02:05:45.930Z,5.97
2022-07-29T02:08:16.211Z,6.20
2022-07-29T02:10:51.343Z,6.65
2022-07-29T02:13:22.002Z,7.78
2022-07-29T02:16:00.074Z,5.38
2022-07-29T02:18:29.503Z,6.97
2022-07-29T02:20:59.654Z,8.75
2022-07-29T02:23:27.816Z,5.95
2022-07-29T02:26:01.959Z,7.03
2022-07-29T02:28:33.588Z,10.27
2022-07-29T02:31:03.654Z,8.38
2022-07-29T02:33:35.246Z,4.80
2022-07-29T02:36:04.498Z,6.50
2022-07-29T02:38:51.688Z,8.27
2022-07-29T02:41:24.696Z,6.25
2022-07-29T02:44:07.603Z,6.60
2022-07-29T02:46:47.846Z,6.25
2022-07-29T02:49:21.455Z,6.38
2022-07-29T02:51:58.719Z,8.02
2022-07-29T02:55:02.506Z,5.60
2022-07-29T02:57:54.603Z,5.68
2022-07-29T03:00:25.938Z,5.07
2022-07-29T03:02:58.648Z,7.18
2022-07-29T03:05:27.516Z,4.90
2022-07-29T03:07:59.951Z,4.78
2022-07-29T03:10:33.583Z,8.52
2022-07-29T03:13:06.262Z,5.28
2022-07-29T03:15:35.017Z,5.00
2022-07-29T03:18:04.205Z,6.32
2022-07-29T03:20:31.633Z,6.68
2022-07-29T03:23:04.548Z,6.72
2022-07-29T03:25:33.229Z,10.45
2022-07-29T03:28:00.303Z,9.07
2022-07-29T03:30:27.528Z,5.57
2022-07-29T03:32:59.774Z,5.55
2022-07-29T03:35:28.434Z,5.38
2022-07-29T03:37:59.801Z,6.03
2022-07-29T03:40:41.633Z,6.15
2022-07-29T03:43:11.020Z,5.90
2022-07-29T03:45:39.273Z,9.60
2022-07-29T03:48:14.218Z,8.18
2022-07-29T03:50:41.531Z,7.63
2022-07-29T03:53:11.837Z,5.30
2022-07-29T03:55:47.451Z,7.55
2022-07-29T03:58:17.206Z,5.85
2022-07-29T04:00:49.753Z,6.77
2022-07-29T04:03:23.286Z,8.07
2022-07-29T04:06:03.224Z,7.55
2022-07-29T04:08:30.244Z,6.78
2022-07-29T04:11:05.244Z,8.05
2022-07-29T04:13:36.634Z,17.77
2022-07-29T04:16:11.224Z,8.18
2022-07-29T04:18:43.621Z,5.68
2022-07-29T04:21:12.877Z,8.90
2022-07-29T04:23:56.240Z,8.07
2022-07-29T04:26:26.819Z,6.22
2022-07-29T04:28:54.137Z,5.13
2022-07-29T04:31:27.096Z,4.60
2022-07-29T04:33:56.255Z,10.55
2022-07-29T04:36:29.260Z,7.70
2022-07-29T04:39:08.064Z,6.80
2022-07-29T04:41:43.724Z,5.10
2022-07-29T04:44:14.843Z,6.95
2022-07-29T04:46:47.635Z,12.85
2022-07-29T04:49:17.335Z,6.60
2022-07-29T04:51:44.634Z,8.73
2022-07-29T04:54:15.527Z,5.03
2022-07-29T04:56:50.824Z,5.30
2022-07-29T04:59:50.304Z,6.18
2022-07-29T05:02:27.841Z,8.48
2022-07-29T05:05:02.872Z,10.60
2022-07-29T05:07:31.731Z,6.63
2022-07-29T05:09:58.778Z,7.45
2022-07-29T05:12:27.218Z,5.22
2022-07-29T05:15:02.410Z,8.10
2022-07-29T05:17:33.861Z,12.70
2022-07-29T05:20:11.010Z,7.75
2022-07-29T05:22:40.157Z,7.97
2022-07-29T05:25:18.632Z,9.15
2022-07-29T05:27:46.668Z,5.28
2022-07-29T05:30:27.400Z,6.70
2022-07-29T05:33:03.184Z,4.90
2022-07-29T05:35:30.406Z,8.15
2022-07-29T05:37:58.922Z,5.88
2022-07-29T05:40:34.531Z,8.20
2022-07-29T05:43:13.473Z,7.00
2022-07-29T05:46:17.079Z,6.30
2022-07-29T05:48:48.647Z,7.05
2022-07-29T05:51:15.626Z,7.68
2022-07-29T05:53:46.362Z,6.82
2022-07-29T05:56:25.640Z,7.57
2022-07-29T05:58:54.480Z,5.25
2022-07-29T06:01:21.532Z,7.05
2022-07-29T06:03:50.456Z,7.18
2022-07-29T06:06:19.555Z,6.18
2022-07-29T06:08:50.420Z,8.20
2022-07-29T06:11:17.810Z,5.78
2022-07-29T06:13:53.684Z,5.40
2022-07-29T06:16:35.080Z,4.38
2022-07-29T06:19:02.249Z,6.65
2022-07-29T06:21:34.649Z,10.30
2022-07-29T06:24:17.062Z,4.97
2022-07-29T06:26:52.699Z,5.53
2022-07-29T06:29:25.187Z,6.72
2022-07-29T06:31:59.334Z,8.57
2022-07-29T06:34:33.571Z,7.18
2022-07-29T06:37:15.561Z,9.77
2022-07-29T06:40:10.386Z,7.57
2022-07-29T06:42:43.937Z,7.97
2022-07-29T06:45:16.188Z,8.18
2022-07-29T06:48:29.440Z,9.95
2022-07-29T06:50:59.981Z,9.20
2022-07-29T06:53:28.105Z,7.22
2022-07-29T06:56:00.035Z,7.18
2022-07-29T06:58:33.067Z,9.88
2022-07-29T07:01:05.488Z,8.32
2022-07-29T07:03:33.435Z,13.63
2022-07-29T07:06:01.363Z,5.85
2022-07-29T07:08:30.093Z,10.18
2022-07-29T07:10:57.951Z,6.60
2022-07-29T07:13:38.946Z,10.30
2022-07-29T07:16:05.974Z,8.15
2022-07-29T07:18:32.984Z,12.50
2022-07-29T07:21:03.416Z,9.27
2022-07-29T07:23:30.275Z,6.32
2022-07-29T07:25:57.134Z,10.27
2022-07-29T07:28:26.343Z,12.85
2022-07-29T07:30:57.512Z,11.02
2022-07-29T07:33:31.069Z,10.38
2022-07-29T07:36:06.710Z,10.95
2022-07-29T07:38:52.023Z,10.23
2022-07-29T07:41:32.471Z,9.75
2022-07-29T07:44:16.119Z,9.60
2022-07-29T07:46:46.040Z,7.90
2022-07-29T07:49:23.433Z,8.80
2022-07-29T07:51:51.195Z,7.95
2022-07-29T07:54:20.778Z,9.82
2022-07-29T07:56:55.195Z,11.40
2022-07-29T07:59:23.025Z,9.75
2022-07-29T08:01:55.630Z,7.82
2022-07-29T08:04:28.165Z,14.10
2022-07-29T08:06:58.232Z,8.15
2022-07-29T08:09:29.926Z,11.10
2022-07-29T08:12:00.069Z,8.27
2022-07-29T08:14:33.210Z,13.18
2022-07-29T08:17:02.073Z,10.40
2022-07-29T08:19:32.772Z,8.68
2022-07-29T08:22:00.726Z,7.63
2022-07-29T08:24:44.520Z,10.50
2022-07-29T08:27:33.337Z,8.68
2022-07-29T08:30:00.164Z,8.27
2022-07-29T08:35:45.190Z,8.23
2022-07-29T08:38:15.752Z,8.90
2022-07-29T08:40:42.666Z,9.40
2022-07-29T08:43:15.978Z,7.60
2022-07-29T08:46:01.915Z,10.07
2022-07-29T08:48:32.196Z,9.40
2022-07-29T08:51:01.635Z,7.85
2022-07-29T08:53:32.030Z,12.13
2022-07-29T08:56:02.150Z,7.03
2022-07-29T08:58:37.030Z,12.30
2022-07-29T09:01:06.846Z,8.23
2022-07-29T09:03:38.157Z,9.38
2022-07-29T09:06:06.370Z,6.35
2022-07-29T09:08:34.685Z,8.60
2022-07-29T09:11:09.187Z,9.63
2022-07-29T09:13:37.296Z,7.18
2022-07-29T09:16:09.368Z,7.53
2022-07-29T09:18:46.457Z,8.88
2022-07-29T09:21:40.289Z,7.43
2022-07-29T09:24:21.263Z,8.57
2022-07-29T09:26:54.209Z,6.43
2022-07-29T09:29:27.631Z,9.50
2022-07-29T09:31:56.719Z,6.35
2022-07-29T09:34:33.206Z,7.03
2022-07-29T09:37:03.042Z,10.35
2022-07-29T09:39:38.209Z,10.27
2022-07-29T09:42:10.812Z,11.65
2022-07-29T09:44:52.689Z,10.00
2022-07-29T09:47:22.977Z,9.98
2022-07-29T09:49:55.535Z,9.32
2022-07-29T09:52:22.831Z,11.27
2022-07-29T09:54:55.479Z,7.18
2022-07-29T09:57:30.863Z,10.45
2022-07-29T10:00:20.022Z,13.95
2022-07-29T10:02:52.938Z,9.88
2022-07-29T10:05:36.110Z,7.97
2022-07-29T10:08:04.813Z,10.75
2022-07-29T10:10:37.629Z,11.15
2022-07-29T10:13:35.539Z,10.45
2022-07-29T10:16:03.752Z,8.77
2022-07-29T10:18:36.653Z,8.43
2022-07-29T10:21:07.759Z,5.97
2022-07-29T10:23:46.193Z,7.32
2022-07-29T10:28:41.302Z,7.35
2022-07-29T10:31:24.193Z,10.50
2022-07-29T10:34:11.416Z,8.82
2022-07-29T10:37:25.877Z,10.77
2022-07-29T10:40:38.293Z,5.63
2022-07-29T10:43:31.905Z,7.93
2022-07-29T10:46:07.330Z,5.55
2022-07-29T10:49:15.449Z,8.57
2022-07-29T10:52:05.817Z,6.22
2022-07-29T10:54:44.335Z,10.02
2022-07-29T10:57:53.185Z,4.53
2022-07-29T11:00:35.874Z,8.70
2022-07-29T11:03:11.710Z,7.28
2022-07-29T11:05:59.888Z,9.15
2022-07-29T11:08:32.402Z,8.35
2022-07-29T11:11:22.584Z,7.60
2022-07-29T11:14:05.516Z,4.55
2022-07-29T11:17:06.490Z,7.28
2022-07-29T11:19:48.014Z,10.57
2022-07-29T11:22:45.946Z,6.40
2022-07-29T11:25:42.770Z,7.60
2022-07-29T11:28:22.905Z,6.25
2022-07-29T11:31:12.021Z,6.50
2022-07-29T11:33:56.386Z,5.10
2022-07-29T11:36:28.031Z,5.72
2022-07-29T11:39:36.848Z,4.25
2022-07-29T11:42:32.164Z,8.02
2022-07-29T11:45:43.923Z,8.93
2022-07-29T11:48:27.585Z,4.85
2022-07-29T11:50:48.604Z,4.90
2022-07-29T11:56:20.107Z,3.47
2022-07-29T12:02:02.433Z,6.72
2022-07-29T12:04:59.239Z,5.45
2022-07-29T12:07:38.952Z,5.78
2022-07-29T12:10:19.752Z,5.90
2022-07-29T12:12:57.620Z,3.88
2022-07-29T12:15:45.996Z,6.47
2022-07-29T12:18:37.950Z,5.90
2022-07-29T12:21:12.487Z,6.78
2022-07-29T12:24:05.437Z,6.72
2022-07-29T12:26:35.975Z,13.00
2022-07-29T12:29:14.087Z,5.65
2022-07-29T12:31:45.844Z,6.03
2022-07-29T12:34:16.893Z,6.50
2022-07-29T12:36:54.568Z,4.55
2022-07-29T12:39:35.103Z,3.13
2022-07-29T12:42:18.619Z,5.95
2022-07-29T12:45:06.739Z,4.05
2022-07-29T12:47:54.630Z,5.88
2022-07-29T12:50:26.393Z,6.82
2022-07-29T12:52:53.501Z,6.07
2022-07-29T12:55:46.504Z,5.07
2022-07-29T12:58:30.830Z,3.97
2022-07-29T13:01:05.233Z,2.70
2022-07-29T13:04:06.746Z,5.53
2022-07-29T13:07:19.883Z,7.22
2022-07-29T13:10:52.555Z,3.70
2022-07-29T13:13:33.408Z,5.28
2022-07-29T13:16:23.020Z,5.63
2022-07-29T13:19:12.200Z,9.13
2022-07-29T13:21:40.363Z,4.68
2022-07-29T13:24:36.382Z,7.80
2022-07-29T13:27:18.864Z,5.50
2022-07-29T13:29:47.692Z,4.70
2022-07-29T13:32:41.997Z,7.75
2022-07-29T13:35:33.367Z,3.33
2022-07-29T13:38:14.744Z,5.78
2022-07-29T13:40:49.174Z,8.32
2022-07-29T13:43:44.076Z,3.97
2022-07-29T13:46:20.957Z,4.05
2022-07-29T13:48:54.789Z,5.75
2022-07-29T13:51:33.657Z,4.75
2022-07-29T13:54:07.679Z,4.32
2022-07-29T13:56:44.125Z,6.88
2022-07-29T13:59:26.907Z,4.40
2022-07-29T14:02:01.623Z,3.17
2022-07-29T14:04:33.165Z,5.80
2022-07-29T14:07:03.780Z,3.75
2022-07-29T14:09:56.872Z,6.40
2022-07-29T14:12:36.787Z,4.72
2022-07-29T14:15:10.651Z,8.00
2022-07-29T14:17:48.199Z,3.15
2022-07-29T14:20:21.380Z,4.03
2022-07-29T14:22:54.137Z,4.90
2022-07-29T14:25:27.680Z,5.13
2022-07-29T14:28:01.787Z,4.15
2022-07-29T14:30:44.726Z,6.03
2022-07-29T14:33:20.692Z,7.13
2022-07-29T14:35:52.548Z,4.45
2022-07-29T14:38:22.576Z,7.28
2022-07-29T14:40:54.609Z,5.38
2022-07-29T14:43:36.716Z,10.93
2022-07-29T14:46:12.404Z,9.15
2022-07-29T14:48:55.218Z,3.97
2022-07-29T14:51:32.434Z,5.28
2022-07-29T14:54:07.192Z,5.03
2022-07-29T14:56:37.854Z,9.15
2022-07-29T14:59:30.659Z,5.95
2022-07-29T15:02:03.643Z,6.38
2022-07-29T15:04:32.579Z,6.38
2022-07-29T15:07:15.119Z,7.93
2022-07-29T15:09:51.323Z,6.53
2022-07-29T15:12:26.031Z,7.53
2022-07-29T15:14:55.096Z,5.00
2022-07-29T15:17:24.619Z,3.10
2022-07-29T15:19:54.763Z,9.73
2022-07-29T15:22:37.995Z,5.95
2022-07-29T15:25:13.602Z,4.03
2022-07-29T15:27:48.916Z,3.58
2022-07-29T15:33:06.553Z,7.75
2022-07-29T15:35:41.936Z,9.32
2022-07-29T15:38:11.045Z,4.13
2022-07-29T15:40:48.964Z,2.55
2022-07-29T15:43:28.811Z,4.25
2022-07-29T15:46:20.046Z,5.65
2022-07-29T15:49:00.482Z,3.97
2022-07-29T15:51:44.906Z,8.25
2022-07-29T15:54:15.661Z,8.40
2022-07-29T15:57:00.920Z,8.65
2022-07-29T15:59:37.322Z,5.30
2022-07-29T16:02:33.553Z,7.22
2022-07-29T16:05:09.506Z,4.85
2022-07-29T16:07:56.657Z,5.82
2022-07-29T16:10:39.587Z,3.53
2022-07-29T16:13:26.034Z,6.38
2022-07-29T16:16:02.036Z,6.60
2022-07-29T16:18:36.265Z,6.82
2022-07-29T16:21:32.117Z,8.48
2022-07-29T16:24:09.965Z,4.65
2022-07-29T16:26:41.403Z,11.77
2022-07-29T16:29:14.240Z,6.78
2022-07-29T16:31:45.751Z,8.15
2022-07-29T16:34:15.113Z,6.53
2022-07-29T16:37:15.399Z,7.47
2022-07-29T16:39:48.970Z,3.80
2022-07-29T16:42:37.087Z,10.77
2022-07-29T16:45:11.694Z,5.30
2022-07-29T16:47:43.351Z,7.90
2022-07-29T16:50:11.038Z,5.72
2022-07-29T16:52:53.028Z,5.30
2022-07-29T16:55:28.332Z,6.47
2022-07-29T16:57:58.908Z,3.92
2022-07-29T17:00:31.734Z,4.32
2022-07-29T17:03:04.681Z,4.40
2022-07-29T17:05:52.732Z,6.65
2022-07-29T17:11:05.036Z,4.47
2022-07-29T17:13:34.907Z,5.93
2022-07-29T17:16:04.846Z,4.68
2022-07-29T17:18:59.199Z,4.85
2022-07-29T17:21:36.400Z,3.80
2022-07-29T17:24:16.941Z,2.92
2022-07-29T17:26:50.344Z,3.28
2022-07-29T17:29:20.745Z,4.10
2022-07-29T17:31:47.827Z,2.90
2022-07-29T17:34:18.926Z,4.25
2022-07-29T17:36:48.492Z,4.57
2022-07-29T17:39:17.847Z,4.13
2022-07-29T17:41:48.220Z,6.22
2022-07-29T17:44:15.518Z,4.00
2022-07-29T17:46:42.704Z,8.35
2022-07-29T17:49:10.883Z,3.70
2022-07-29T17:51:43.430Z,5.40
2022-07-29T17:54:10.945Z,7.25
2022-07-29T17:56:38.996Z,10.35
2022-07-29T17:59:09.183Z,8.27
2022-07-29T18:01:39.130Z,11.13
2022-07-29T18:04:06.205Z,27.65
2022-07-29T18:06:40.717Z,30.20
2022-07-29T18:09:08.182Z,22.38
2022-07-29T18:11:36.566Z,14.70
2022-07-29T18:14:11.256Z,16.20
2022-07-29T18:16:38.658Z,13.55
2022-07-29T18:19:08.825Z,17.55
2022-07-29T18:21:51.455Z,21.98
2022-07-29T18:24:30.293Z,27.33
2022-07-29T18:27:07.986Z,27.38
2022-07-29T18:29:36.181Z,35.43
2022-07-29T18:32:05.336Z,32.78
2022-07-29T18:34:34.026Z,25.33
2022-07-29T18:37:10.933Z,24.23
2022-07-29T18:39:40.477Z,51.03
2022-07-29T18:42:07.989Z,33.70
2022-07-29T18:44:43.576Z,20.92
2022-07-29T18:47:17.017Z,33.35
2022-07-29T18:49:44.370Z,34.10
2022-07-29T18:52:12.443Z,30.33
2022-07-29T18:54:48.089Z,32.88
2022-07-29T18:57:53.703Z,43.40
2022-07-29T19:00:15.258Z,34.25
2022-07-29T19:02:45.659Z,22.57
2022-07-29T19:05:18.397Z,14.13
2022-07-29T19:07:45.310Z,23.58
2022-07-29T19:10:12.626Z,11.60
2022-07-29T19:12:49.765Z,24.27
2022-07-29T19:15:19.976Z,9.85
2022-07-29T19:17:46.954Z,11.23
2022-07-29T19:20:14.470Z,11.52
2022-07-29T19:22:51.207Z,10.82
2022-07-29T19:25:19.628Z,9.95
2022-07-29T19:27:47.317Z,9.80
2022-07-29T19:30:23.161Z,9.38
2022-07-29T19:32:51.997Z,8.27
2022-07-29T19:35:25.687Z,10.32
2022-07-29T19:37:57.387Z,13.70
2022-07-29T19:40:30.823Z,7.50
2022-07-29T19:43:00.155Z,11.07
2022-07-29T19:45:31.470Z,12.95
2022-07-29T19:48:01.666Z,10.90
2022-07-29T19:50:36.499Z,25.23
2022-07-29T19:53:05.289Z,11.68
2022-07-29T19:55:32.230Z,11.80
2022-07-29T19:58:06.136Z,7.68
2022-07-29T20:00:38.544Z,8.65
2022-07-29T20:03:12.143Z,9.85
2022-07-29T20:05:51.862Z,5.40
2022-07-29T20:08:24.467Z,6.63
2022-07-29T20:10:57.718Z,6.15
2022-07-29T20:13:27.009Z,8.38
2022-07-29T20:15:53.991Z,6.80
2022-07-29T20:18:30.461Z,5.80
2022-07-29T20:20:57.713Z,7.47
2022-07-29T20:23:33.446Z,8.32
2022-07-29T20:26:19.483Z,5.53
2022-07-29T20:28:54.160Z,4.28
2022-07-29T20:31:30.003Z,7.45
2022-07-29T20:33:59.114Z,4.82
2022-07-29T20:36:28.814Z,5.22
2022-07-29T20:39:06.673Z,5.75
2022-07-29T20:41:34.033Z,4.03
2022-07-29T20:44:04.818Z,5.68
2022-07-29T20:46:32.104Z,5.22
2022-07-29T20:49:10.137Z,8.15
2022-07-29T20:51:49.266Z,5.03
2022-07-29T20:54:23.618Z,4.95
2022-07-29T20:56:57.009Z,5.30
2022-07-29T20:59:32.324Z,7.68
2022-07-29T21:02:07.021Z,6.57
2022-07-29T21:04:53.333Z,4.15
2022-07-29T21:07:42.471Z,8.05
2022-07-29T21:10:41.408Z,4.50
2022-07-29T21:13:11.558Z,8.38
2022-07-29T21:15:54.724Z,4.32
2022-07-29T21:18:51.898Z,5.38
2022-07-29T21:24:28.419Z,7.05
2022-07-29T21:27:23.067Z,4.60
2022-07-29T21:29:53.564Z,6.93
2022-07-29T21:34:59.742Z,7.18
2022-07-29T21:37:56.646Z,8.52
2022-07-29T21:40:39.840Z,5.72
2022-07-29T21:43:34.188Z,7.03
2022-07-29T21:46:18.459Z,10.57
2022-07-29T21:48:53.306Z,8.25
2022-07-29T21:51:30.354Z,6.82
2022-07-29T21:54:15.742Z,8.10
2022-07-29T21:57:09.405Z,6.95
2022-07-29T21:59:36.263Z,6.40
2022-07-29T22:02:03.497Z,8.23
2022-07-29T22:04:30.951Z,7.95
2022-07-29T22:06:58.518Z,6.68
2022-07-29T22:09:25.728Z,6.55
2022-07-29T22:11:52.500Z,6.13
2022-07-29T22:14:19.393Z,12.27
2022-07-29T22:16:46.786Z,4.78
2022-07-29T22:19:14.176Z,5.57
2022-07-29T22:21:41.792Z,6.40
2022-07-29T22:24:10.319Z,6.50
2022-07-29T22:26:38.163Z,8.33
2022-07-29T22:29:05.058Z,7.95
2022-07-29T22:31:31.819Z,7.90
2022-07-29T22:33:58.567Z,5.68
2022-07-29T22:36:26.257Z,6.07
2022-07-29T22:38:52.922Z,6.70
2022-07-29T22:41:19.699Z,7.80
2022-07-29T22:43:46.391Z,4.47
2022-07-29T22:46:13.138Z,7.63
2022-07-29T22:48:39.925Z,6.35
2022-07-29T22:51:06.778Z,4.88
2022-07-29T22:53:33.460Z,5.40
2022-07-29T22:56:00.239Z,4.75
2022-07-29T22:58:26.925Z,5.03
2022-07-29T23:00:53.913Z,7.57
2022-07-29T23:03:21.261Z,7.25
2022-07-29T23:05:48.168Z,8.15
2022-07-29T23:08:14.983Z,5.90
2022-07-29T23:10:41.722Z,6.20
2022-07-29T23:13:08.640Z,6.38
2022-07-29T23:15:35.285Z,8.65
2022-07-29T23:18:02.063Z,7.20
2022-07-29T23:20:28.900Z,4.68
2022-07-29T23:22:55.616Z,5.03
2022-07-29T23:25:22.447Z,3.85
2022-07-29T23:27:49.114Z,7.35
2022-07-29T23:30:15.843Z,6.05
2022-07-29T23:32:42.504Z,7.93
2022-07-29T23:35:09.608Z,5.47
2022-07-29T23:37:36.638Z,6.95
2022-07-29T23:40:04.707Z,8.27
2022-07-29T23:42:31.551Z,7.47
2022-07-29T23:44:58.283Z,8.35
2022-07-29T23:47:24.965Z,7.25
2022-07-29T23:49:51.718Z,5.45
2022-07-29T23:52:18.644Z,5.97
2022-07-29T23:54:45.407Z,6.65
2022-07-29T23:57:12.293Z,5.57
2022-07-29T23:59:38.968Z,8.68
